Time;durP1;ratioP1;P1;durP2;ratioP2;P2;SDS_P1;SDS_P2;PMS_P1;PMS_P2;Temp;Humidity;BMP_temperature;BMP_pressure;BME280_temperature;BME280_humidity;BME280_pressure;Samples;Min_cycle;Max_cycle;Signal;HPM_P1;HPM_P2
2022/12/05 00:00:19;;;;;;;59.40;27.67;;;7.20;65.20;;;5.89;65.34;101507.97;12153263;19;20466;-86
2022/12/05 00:04:20;;;;;;;50.95;21.77;;;7.20;65.80;;;5.89;65.35;101508.81;12154276;19;20010;-86
2022/12/05 00:08:22;;;;;;;56.00;24.38;;;7.20;65.40;;;5.91;65.39;101499.28;12156517;19;20018;-87
2022/12/05 00:12:24;;;;;;;44.80;21.38;;;7.30;65.70;;;5.92;65.49;101492.34;12152905;19;20021;-86
2022/12/05 00:16:29;;;;;;;41.20;19.98;;;7.20;65.30;;;5.92;65.56;101497.53;12148255;19;20018;-86
2022/12/05 00:20:31;;;;;;;47.45;21.48;;;7.20;65.20;;;5.87;65.46;101481.22;12155800;19;20415;-87
2022/12/05 00:24:33;;;;;;;55.10;25.08;;;7.30;65.30;;;5.90;65.45;101483.75;12155232;19;20367;-86
2022/12/05 00:28:35;;;;;;;47.38;21.83;;;7.30;65.30;;;5.94;65.27;101490.59;12157976;19;20039;-86
2022/12/05 00:32:37;;;;;;;39.00;18.70;;;7.30;65.20;;;5.96;65.33;101501.78;12151276;19;20025;-86
2022/12/05 00:36:39;;;;;;;42.55;20.92;;;7.30;65.10;;;5.94;65.53;101495.75;12150816;19;20018;-86
2022/12/05 00:40:42;;;;;;;43.13;20.83;;;7.30;65.30;;;6.01;65.32;101507.69;12153085;19;20878;-86
2022/12/05 00:44:43;;;;;;;41.10;19.85;;;7.30;65.30;;;6.02;65.47;101503.38;12152808;19;20026;-86
2022/12/05 00:48:46;;;;;;;46.78;21.30;;;7.30;65.10;;;6.00;65.34;101506.00;12153132;19;20019;-87
2022/12/05 00:52:47;;;;;;;47.80;24.95;;;7.30;65.20;;;5.94;65.51;101494.06;12150318;19;20022;-86
2022/12/05 00:56:51;;;;;;;42.53;19.95;;;7.50;65.80;;;5.87;65.56;101470.88;12148002;19;20026;-84
2022/12/05 01:00:53;;;;;;;45.30;20.35;;;7.30;65.10;;;6.02;65.51;101501.63;12154605;19;20019;-83
2022/12/05 01:04:55;;;;;;;44.15;21.77;;;7.30;65.10;;;5.77;65.49;101462.44;12151026;19;20268;-84
2022/12/05 01:08:57;;;;;;;45.15;22.02;;;7.40;65.40;;;5.81;65.35;101452.88;12152865;19;20464;-83
2022/12/05 01:12:59;;;;;;;41.00;21.77;;;7.40;65.20;;;6.09;65.40;101500.59;12161545;19;20021;-84
2022/12/05 01:17:01;;;;;;;45.50;22.80;;;7.40;65.40;;;5.96;65.47;101479.28;12162871;19;20710;-83
2022/12/05 01:21:05;;;;;;;44.97;21.55;;;7.40;65.40;;;6.01;65.29;101492.16;12167422;19;20035;-84
2022/12/05 01:25:07;;;;;;;41.80;19.98;;;7.40;65.20;;;6.04;65.54;101499.84;12166464;19;20021;-83
2022/12/05 01:29:12;;;;;;;46.53;21.48;;;7.40;65.10;;;6.09;65.54;101503.19;12165403;19;21775;-83
2022/12/05 01:33:15;;;;;;;44.58;21.33;;;7.40;65.10;;;6.11;65.46;101500.56;12167044;19;20039;-83
2022/12/05 01:37:17;;;;;;;40.65;20.67;;;7.40;65.10;;;6.12;65.44;101492.75;12161905;19;20019;-83
2022/12/05 01:41:34;;;;;;;33.65;17.05;;;7.50;65.30;;;6.09;65.33;101490.22;12167175;19;20287;-83
2022/12/05 01:45:40;;;;;;;39.20;20.45;;;7.40;64.90;;;6.13;65.40;101497.06;12162634;19;20491;-82
2022/12/05 01:49:42;;;;;;;40.17;19.10;;;7.40;65.00;;;6.09;65.40;101479.00;12162193;19;20026;-83
2022/12/05 01:53:44;;;;;;;40.58;20.60;;;7.60;65.20;;;6.11;65.70;101497.97;12164390;19;20011;-83
2022/12/05 01:57:48;;;;;;;46.25;21.27;;;7.60;65.20;;;5.98;65.44;101461.97;12161200;19;20303;-83
2022/12/05 02:01:49;;;;;;;41.30;19.50;;;7.50;65.10;;;6.11;65.44;101482.41;12162844;19;20014;-83
2022/12/05 02:05:55;;;;;;;50.00;20.70;;;7.40;65.10;;;6.08;65.35;101483.34;12159631;19;20319;-83
2022/12/05 02:09:58;;;;;;;41.10;19.13;;;7.40;65.10;;;6.12;65.56;101484.97;12179387;19;20555;-83
2022/12/05 02:14:15;;;;;;;41.22;19.75;;;7.50;65.10;;;6.16;65.60;101490.94;12174859;19;20018;-83
2022/12/05 02:19:09;;;;;;;40.08;20.17;;;7.70;65.30;;;6.13;65.31;101497.06;12171903;19;20373;-83
2022/12/05 02:23:56;;;;;;;35.70;15.88;;;7.50;65.20;;;5.96;65.55;101463.72;12166957;19;20019;-83
2022/12/05 02:28:20;;;;;;;39.75;19.05;;;7.50;64.90;;;6.13;65.42;101491.00;12159127;19;20427;-83
2022/12/05 02:32:46;;;;;;;39.28;18.48;;;7.50;65.10;;;6.15;65.63;101487.47;12161437;19;20380;-83
2022/12/05 02:37:04;;;;;;;39.97;19.00;;;7.50;65.10;;;6.16;65.42;101491.78;12164076;19;20686;-83
2022/12/05 02:41:34;;;;;;;36.55;18.85;;;7.50;65.10;;;6.14;65.54;101478.00;12166231;19;20320;-83
2022/12/05 02:45:37;;;;;;;38.75;18.67;;;7.50;65.40;;;6.14;65.62;101475.41;12157382;19;20923;-83
2022/12/05 02:49:41;;;;;;;39.70;17.95;;;7.50;65.20;;;6.10;65.48;101466.00;12163438;19;20479;-83
2022/12/05 02:53:44;;;;;;;35.63;16.88;;;7.50;65.20;;;6.08;65.40;101460.00;12159784;19;20117;-83
2022/12/05 02:57:53;;;;;;;39.65;18.80;;;7.50;65.10;;;6.11;65.42;101456.50;12160426;19;20112;-83
2022/12/05 03:01:55;;;;;;;39.15;18.80;;;7.50;65.30;;;6.07;65.48;101444.47;12160732;19;20027;-83
2022/12/05 03:06:08;;;;;;;41.15;18.38;;;7.50;65.40;;;6.15;65.57;101458.94;12162085;19;20380;-83
2022/12/05 03:10:11;;;;;;;34.67;17.27;;;7.50;65.20;;;6.09;65.49;101448.75;12160344;19;20022;-83
2022/12/05 03:14:22;;;;;;;38.13;19.10;;;7.70;65.40;;;6.18;65.47;101464.09;12165679;19;20313;-83
2022/12/05 03:18:34;;;;;;;31.25;15.52;;;7.50;65.20;;;6.15;65.61;101456.34;12169817;19;20015;-83
2022/12/05 03:23:02;;;;;;;32.97;16.65;;;7.50;65.10;;;6.14;65.57;101459.00;12168719;19;20129;-83
2022/12/05 03:27:37;;;;;;;34.80;17.90;;;7.50;65.10;;;6.06;65.59;101448.81;12161742;19;20063;-82
2022/12/05 03:31:48;;;;;;;34.57;16.93;;;7.50;65.10;;;6.16;65.44;101462.41;12158737;19;20382;-83
2022/12/05 03:36:13;;;;;;;30.80;15.98;;;7.50;64.90;;;6.11;65.61;101462.53;12155696;19;20042;-83
2022/12/05 03:40:38;;;;;;;41.30;18.48;;;7.50;64.80;;;6.16;65.64;101467.59;12159121;19;20292;-83
2022/12/05 03:45:05;;;;;;;34.03;17.63;;;7.50;65.10;;;6.08;65.68;101457.41;12160148;19;20606;-83
2022/12/05 03:49:28;;;;;;;;;;;7.50;65.20;;;6.05;65.65;101449.72;12157141;19;20011;-83
2022/12/05 03:54:08;;;;;;;36.92;17.10;;;7.50;65.90;;;6.13;65.62;101454.69;12155614;19;19941;-83
2022/12/05 03:58:30;;;;;;;33.22;16.52;;;7.50;65.00;;;6.12;65.54;101453.00;12152821;19;20408;-83
2022/12/05 04:02:53;;;;;;;29.42;15.75;;;7.50;65.10;;;6.20;65.47;101471.81;12153870;19;20026;-83
2022/12/05 04:06:58;;;;;;;27.27;15.25;;;7.50;64.90;;;6.14;65.55;101457.25;12154774;19;20363;-83
2022/12/05 04:11:12;;;;;;;35.63;17.88;;;7.60;65.00;;;6.13;65.47;101455.56;12151307;19;20039;-83
2022/12/05 04:15:21;;;;;;;29.00;15.02;;;7.50;65.00;;;6.14;65.60;101459.84;12152698;19;20365;-83
2022/12/05 04:21:36;;;;;;;29.98;15.20;;;7.60;65.00;;;6.20;65.52;101467.47;12153560;19;20031;-83
2022/12/05 04:29:04;;;;;;;27.73;15.57;;;7.50;64.90;;;6.13;65.65;101454.69;12146922;19;20015;-83
2022/12/05 04:33:42;;;;;;;23.17;12.60;;;7.60;65.00;;;6.22;65.60;101464.00;12151491;19;20025;-83
2022/12/05 04:37:49;;;;;;;29.98;14.63;;;7.60;64.80;;;6.13;65.55;101446.91;12151159;19;20472;-83
2022/12/05 04:42:31;;;;;;;27.92;14.20;;;7.60;64.80;;;6.24;65.44;101462.19;12150895;19;20021;-83
2022/12/05 04:46:36;;;;;;;25.88;14.63;;;7.60;64.80;;;6.27;65.73;101459.56;12148581;19;20023;-83
2022/12/05 04:50:40;;;;;;;29.48;14.60;;;7.60;64.90;;;6.19;65.57;101452.81;12158054;19;20384;-83
2022/12/05 04:54:56;;;;;;;31.08;15.43;;;7.60;64.90;;;6.23;65.37;101458.75;12158679;19;20391;-83
2022/12/05 04:58:58;;;;;;;;;;;7.60;64.90;;;6.22;65.73;101464.00;12160670;19;20014;-83
2022/12/05 05:03:28;;;;;;;21.10;11.60;;;7.60;65.10;;;6.24;65.63;101467.38;12162705;19;19922;-83
2022/12/05 05:07:30;;;;;;;20.35;12.05;;;7.60;64.70;;;6.18;65.71;101451.13;12154893;19;20287;-82
2022/12/05 05:11:34;;;;;;;19.30;11.13;;;7.60;64.80;;;6.25;65.61;101454.41;12161864;19;20809;-83
2022/12/05 05:15:36;;;;;;;26.83;12.57;;;7.60;64.60;;;6.25;65.66;101464.75;12156713;19;20464;-82
2022/12/05 05:19:37;;;;;;;21.25;11.30;;;7.60;64.80;;;6.34;65.58;101471.47;12173678;19;20046;-83
2022/12/05 05:23:39;;;;;;;18.80;10.60;;;7.60;64.50;;;6.36;65.68;101472.28;12171750;19;20025;-83
2022/12/05 05:27:41;;;;;;;17.05;9.95;;;7.90;64.80;;;6.33;65.45;101462.81;12166085;19;20022;-83
2022/12/05 05:31:44;;;;;;;21.17;11.05;;;7.70;64.60;;;6.34;65.48;101464.53;12170800;19;20015;-83
2022/12/05 05:35:45;;;;;;;17.80;10.80;;;7.70;64.80;;;6.34;65.65;101474.06;12167442;19;20015;-82
2022/12/05 05:39:47;;;;;;;17.23;10.30;;;7.90;64.80;;;6.26;65.62;101457.84;12165378;19;20894;-83
2022/12/05 05:43:50;;;;;;;20.30;11.20;;;7.60;64.40;;;6.31;65.55;101468.94;12161533;19;20796;-82
2022/12/05 05:47:52;;;;;;;23.55;12.93;;;7.60;64.50;;;6.33;65.44;101468.00;12162304;19;20371;-83
2022/12/05 05:51:54;;;;;;;16.30;10.27;;;7.60;64.60;;;6.26;65.54;101455.25;12165886;19;21060;-83
2022/12/05 05:55:56;;;;;;;16.75;10.48;;;7.80;64.60;;;6.31;65.67;101471.53;12161212;19;20018;-83
2022/12/05 05:59:58;;;;;;;19.63;10.75;;;7.60;64.50;;;6.22;65.60;101456.22;12163366;19;20408;-83
2022/12/05 06:04:00;;;;;;;17.38;9.88;;;7.70;64.50;;;6.35;65.56;101475.78;12166739;19;20023;-83
2022/12/05 06:08:05;;;;;;;19.08;10.73;;;7.70;64.40;;;6.33;65.64;101472.34;12158101;19;20018;-83
2022/12/05 06:12:07;;;;;;;16.00;9.85;;;7.70;64.50;;;6.27;65.50;101462.16;12165086;19;20018;-83
2022/12/05 06:16:12;;;;;;;20.02;10.38;;;7.60;64.40;;;6.08;65.46;101434.09;12157961;19;20014;-82
2022/12/05 06:20:14;;;;;;;15.02;9.48;;;7.70;64.60;;;6.30;65.51;101468.09;12158740;19;20014;-83
2022/12/05 06:24:16;;;;;;;15.05;9.23;;;7.70;64.40;;;6.34;65.61;101481.84;12162163;19;20022;-83
2022/12/05 06:28:20;;;;;;;16.35;9.52;;;7.70;64.40;;;6.33;65.67;101478.41;12157534;19;20064;-83
2022/12/05 06:32:22;;;;;;;14.80;9.07;;;7.70;64.30;;;6.32;65.47;101479.28;12158023;19;20445;-83
2022/12/05 06:36:25;;;;;;;18.20;10.57;;;7.70;64.30;;;6.01;65.65;101429.94;12160218;19;20125;-83
2022/12/05 06:40:27;;;;;;;16.17;8.77;;;7.70;64.30;;;6.37;65.55;101489.53;12161890;19;20935;-82
2022/12/05 06:44:29;;;;;;;15.57;9.35;;;7.70;64.30;;;6.37;65.51;101494.72;12158616;19;20022;-82
2022/12/05 06:48:31;;;;;;;16.85;9.15;;;7.70;64.30;;;6.26;65.66;101476.00;12160089;19;20875;-83
2022/12/05 06:52:33;;;;;;;15.82;9.18;;;7.70;64.30;;;6.28;65.67;101488.03;12158266;19;20917;-82
2022/12/05 06:56:34;;;;;;;13.88;8.57;;;7.70;64.30;;;6.37;65.74;101505.09;12156764;19;20383;-83
2022/12/05 07:04:56;;;;;;;11.63;8.25;;;7.70;64.30;;;6.37;65.69;101505.97;12157668;19;20535;-82
2022/12/05 07:08:58;;;;;;;17.35;8.43;;;7.70;64.30;;;6.30;65.74;101493.19;12162467;19;20801;-82
2022/12/05 07:12:59;;;;;;;14.48;8.95;;;7.70;64.30;;;6.16;65.48;101473.63;12162145;19;20023;-82
2022/12/05 07:17:01;;;;;;;15.02;8.63;;;7.80;64.30;;;6.39;65.48;101521.47;12158914;19;20010;-82
2022/12/05 07:21:11;;;;;;;18.15;10.57;;;7.70;64.20;;;6.24;65.56;101498.50;12157315;19;20014;-82
2022/12/05 07:25:13;;;;;;;18.58;10.68;;;7.70;64.30;;;6.26;65.64;101507.97;12150784;19;20014;-82
2022/12/05 07:29:15;;;;;;;16.40;9.75;;;7.70;64.30;;;6.35;65.66;101517.28;12151716;19;20018;-82
2022/12/05 07:33:17;;;;;;;23.38;11.60;;;7.70;64.40;;;6.23;65.62;101497.66;12151334;19;20361;-82
2022/12/05 07:37:19;;;;;;;15.43;8.95;;;7.70;64.70;;;6.20;65.51;101493.41;12150024;19;20284;-82
2022/12/05 07:41:30;;;;;;;15.73;9.93;;;7.90;64.60;;;6.25;65.48;101506.25;12157956;19;20036;-83
2022/12/05 07:45:34;;;;;;;15.00;9.43;;;7.70;64.50;;;6.23;65.48;101510.63;12157300;19;20602;-82
2022/12/05 07:49:36;;;;;;;13.38;8.75;;;7.60;64.50;;;6.02;65.64;101470.50;12154211;19;20790;-81
2022/12/05 07:53:40;;;;;;;18.00;9.57;;;7.70;64.50;;;6.20;65.70;101498.59;12157938;19;20029;-81
2022/12/05 07:57:42;;;;;;;14.07;8.33;;;7.80;64.60;;;6.07;65.52;101468.66;12158042;19;20022;-82
2022/12/05 08:01:44;;;;;;;16.55;8.65;;;7.70;64.70;;;6.33;65.58;101513.84;12160873;19;20282;-81
2022/12/05 08:05:45;;;;;;;12.80;7.97;;;7.60;64.60;;;6.33;65.60;101519.91;12156573;19;20022;-83
2022/12/05 08:09:47;;;;;;;11.95;7.68;;;7.70;64.50;;;6.31;65.39;101513.88;12159060;19;20026;-82
2022/12/05 08:13:49;;;;;;;13.70;8.25;;;7.60;64.50;;;6.37;65.55;101528.44;12157690;19;20015;-82
2022/12/05 08:17:51;;;;;;;15.65;8.65;;;7.70;64.50;;;6.31;65.42;101523.41;12158732;19;20372;-83
2022/12/05 08:21:56;;;;;;;12.32;8.18;;;7.70;64.50;;;6.32;65.50;101527.69;12161347;19;20015;-83
2022/12/05 08:26:15;;;;;;;14.88;8.57;;;7.60;64.40;;;6.13;65.61;101509.13;12167833;19;20029;-82
2022/12/05 08:30:17;;;;;;;14.30;9.38;;;7.60;64.50;;;6.27;65.50;101529.59;12167360;19;20706;-82
2022/12/05 08:34:20;;;;;;;11.60;7.28;;;7.60;64.50;;;6.22;65.60;101521.91;12161172;19;21278;-83
2022/12/05 08:38:21;;;;;;;13.43;7.03;;;7.60;64.50;;;6.26;65.61;101530.44;12162346;19;20021;-82
2022/12/05 08:42:23;;;;;;;9.85;7.00;;;7.60;64.50;;;6.23;65.71;101522.75;12157654;19;21022;-82
2022/12/05 08:46:25;;;;;;;10.32;7.32;;;7.60;64.60;;;6.19;65.51;101517.63;12153071;19;20035;-85
2022/12/05 08:50:38;;;;;;;12.27;7.10;;;7.60;64.70;;;6.26;65.77;101526.09;12159165;19;20261;-84
2022/12/05 08:54:39;;;;;;;11.57;7.50;;;7.60;64.60;;;6.21;65.75;101520.19;12160812;19;20421;-84
2022/12/05 08:58:41;;;;;;;11.65;6.97;;;7.60;65.00;;;6.29;65.62;101527.78;12157304;19;20602;-83
2022/12/05 09:02:43;;;;;;;12.57;8.38;;;7.60;64.80;;;6.24;65.56;101519.25;12152212;19;20372;-82
2022/12/05 09:06:45;;;;;;;8.82;6.43;;;7.60;64.80;;;6.27;65.56;101524.41;12150933;19;20360;-82
2022/12/05 09:10:47;;;;;;;9.63;6.47;;;7.60;64.70;;;6.19;65.71;101506.44;12149559;19;20397;-83
2022/12/05 09:14:49;;;;;;;9.23;6.70;;;7.60;64.70;;;6.24;65.56;101519.25;12147935;19;20308;-82
2022/12/05 09:18:51;;;;;;;12.45;7.57;;;7.60;64.80;;;6.19;65.56;101521.97;12145516;19;20481;-82
2022/12/05 09:22:53;;;;;;;11.73;7.57;;;7.60;64.80;;;6.24;65.78;101522.72;12160677;19;20475;-82
2022/12/05 09:26:55;;;;;;;14.43;7.93;;;7.60;64.80;;;6.15;65.72;101510.81;12156420;19;20018;-82
2022/12/05 09:31:06;;;;;;;10.13;6.88;;;7.60;65.00;;;6.12;65.58;101499.66;12157445;19;20026;-83
2022/12/05 09:35:10;;;;;;;9.93;6.35;;;7.50;64.80;;;6.20;65.71;101508.13;12155186;19;20021;-83
2022/12/05 09:39:11;;;;;;;8.05;6.13;;;7.80;65.00;;;6.30;65.57;101525.16;12157904;19;20026;-83
2022/12/05 09:43:39;;;;;;;11.18;6.55;;;7.60;64.80;;;6.22;65.87;101510.69;12155941;19;20014;-83
2022/12/05 09:48:15;;;;;;;10.50;7.25;;;7.60;64.90;;;6.28;65.65;101519.16;12146604;19;20010;-83
2022/12/05 09:52:38;;;;;;;9.85;7.18;;;7.60;64.80;;;6.31;65.70;101520.81;12152508;19;20015;-82
2022/12/05 09:56:43;;;;;;;11.45;7.50;;;7.70;64.90;;;6.35;65.57;101527.66;12151404;19;20125;-83
2022/12/05 10:00:54;;;;;;;9.93;6.90;;;7.60;64.80;;;6.32;65.71;101515.59;12154282;19;20010;-82
2022/12/05 10:05:10;;;;;;;11.25;7.18;;;7.70;64.80;;;6.30;65.75;101509.59;12153237;19;20026;-83
2022/12/05 10:09:33;;;;;;;;;;;7.60;64.80;;;6.30;65.74;101511.34;12154721;19;20019;-83
2022/12/05 10:13:50;;;;;;;13.52;7.22;;;7.60;65.10;;;6.29;65.39;101504.44;12154584;19;19961;-82
2022/12/05 10:18:26;;;;;;;11.15;6.93;;;7.70;64.80;;;6.27;65.76;101504.50;12155768;19;20014;-82
2022/12/05 10:22:53;;;;;;;10.55;6.88;;;7.80;64.80;;;6.25;65.80;101497.63;12157412;19;20650;-82
2022/12/05 10:27:05;;;;;;;11.27;7.13;;;7.70;64.70;;;6.31;65.75;101494.88;12151671;19;20050;-82
2022/12/05 10:31:12;;;;;;;12.18;6.82;;;7.60;64.80;;;6.31;65.86;101494.88;12155037;19;20031;-83
2022/12/05 10:35:21;;;;;;;10.13;7.80;;;7.70;64.90;;;6.33;65.80;101490.50;12152402;19;20025;-82
2022/12/05 10:39:23;;;;;;;10.82;7.55;;;7.70;65.00;;;6.40;65.70;101494.66;12154094;19;20014;-83
2022/12/05 10:43:32;;;;;;;10.52;7.22;;;7.70;64.90;;;6.26;65.61;101479.44;12145380;19;21032;-82
2022/12/05 10:47:34;;;;;;;12.52;7.57;;;7.70;64.90;;;6.36;65.96;101487.84;12152468;19;20014;-82
2022/12/05 10:51:37;;;;;;;11.00;7.20;;;7.70;64.90;;;6.42;65.91;101492.88;12148871;19;20602;-83
2022/12/05 10:55:46;;;;;;;11.35;7.55;;;7.80;64.90;;;6.49;65.92;101499.59;12149899;19;20022;-82
2022/12/05 10:59:49;;;;;;;9.88;7.03;;;7.80;65.00;;;6.35;65.90;101468.84;12151962;19;20018;-82
2022/12/05 11:04:01;;;;;;;11.63;7.25;;;7.80;64.90;;;6.52;65.66;101494.34;12151397;19;20315;-83
2022/12/05 11:08:03;;;;;;;11.38;7.15;;;7.90;64.90;;;6.57;65.90;101487.28;12149735;19;20054;-83
2022/12/05 11:12:43;;;;;;;9.90;6.65;;;7.90;64.80;;;6.57;65.70;101492.47;12154298;19;21215;-82
2022/12/05 11:16:55;;;;;;;9.07;6.30;;;7.90;64.90;;;6.52;65.57;101481.38;12142506;19;20046;-82
2022/12/05 11:21:12;;;;;;;11.90;7.35;;;7.90;64.80;;;6.55;65.64;101488.22;12149571;19;20018;-83
2022/12/05 11:25:27;;;;;;;11.45;7.03;;;8.00;64.90;;;6.60;65.76;101492.38;12155269;19;20025;-83
2022/12/05 11:29:34;;;;;;;12.18;7.55;;;8.00;64.90;;;6.59;65.73;101485.50;12151419;19;20023;-82
2022/12/05 11:33:37;;;;;;;10.20;7.07;;;8.00;64.80;;;6.60;65.91;101492.38;12152867;19;20284;-82
2022/12/05 11:37:52;;;;;;;9.88;6.10;;;8.00;64.80;;;6.64;65.89;101494.03;12149528;19;20035;-83
2022/12/05 11:42:19;;;;;;;;;;;8.00;64.70;;;6.61;65.65;101499.28;12149330;19;20043;-82
2022/12/05 11:46:44;;;;;;;8.73;5.78;;;8.00;64.90;;;6.60;65.67;101486.34;12153962;19;20002;-83
2022/12/05 11:51:02;;;;;;;9.65;6.18;;;8.00;64.40;;;6.60;65.72;101492.38;12154230;19;20018;-82
2022/12/05 11:55:29;;;;;;;12.40;7.85;;;8.00;64.60;;;6.55;65.93;101473.50;12151071;19;20014;-82
2022/12/05 11:59:56;;;;;;;12.80;8.20;;;8.00;64.60;;;6.62;65.68;101477.63;12153763;19;20014;-82
2022/12/05 12:04:48;;;;;;;12.30;7.57;;;8.00;64.70;;;6.54;65.75;101460.56;12152653;19;20645;-83
2022/12/05 12:09:06;;;;;;;12.63;7.60;;;8.00;64.70;;;6.66;65.75;101475.81;12152310;19;20391;-83
2022/12/05 12:13:45;;;;;;;14.32;9.13;;;8.00;64.50;;;6.64;65.69;101473.28;12152838;19;20482;-82
2022/12/05 12:18:32;;;;;;;12.98;8.25;;;8.00;64.60;;;6.64;65.92;101470.66;12153059;19;20380;-82
2022/12/05 12:23:01;;;;;;;8.93;7.05;;;8.20;64.80;;;6.68;65.62;101463.66;12152295;19;20018;-82
2022/12/05 12:27:30;;;;;;;13.18;7.70;;;8.00;64.50;;;6.70;65.71;101468.78;12151189;19;20015;-83
2022/12/05 12:31:43;;;;;;;12.25;7.43;;;8.10;64.70;;;6.74;65.71;101470.41;12154577;19;20022;-83
2022/12/05 12:35:55;;;;;;;12.18;7.60;;;8.10;64.70;;;6.72;65.68;101459.22;12148687;19;20121;-82
2022/12/05 12:41:05;;;;;;;13.07;9.02;;;8.10;64.60;;;6.74;65.96;101463.47;12149961;19;20876;-83
2022/12/05 12:45:56;;;;;;;15.38;8.98;;;8.10;64.50;;;6.76;65.70;101460.84;12142969;19;20029;-83
2022/12/05 12:50:21;;;;;;;12.30;8.05;;;8.10;64.60;;;6.69;65.85;101436.78;12142331;19;20019;-83
2022/12/05 12:54:44;;;;;;;15.20;8.98;;;8.10;64.60;;;6.79;65.71;101440.00;12148778;19;20029;-83
2022/12/05 12:59:29;;;;;;;17.77;8.98;;;8.20;64.60;;;6.76;65.85;101435.72;12150275;19;20275;-82
2022/12/05 13:03:52;;;;;;;15.90;9.38;;;8.10;64.70;;;6.78;65.80;101438.31;12148779;19;20511;-83
2022/12/05 13:08:14;;;;;;;14.60;8.88;;;8.10;64.70;;;6.72;65.75;101430.66;12147645;19;20025;-83
2022/12/05 13:12:25;;;;;;;18.33;10.65;;;8.10;64.70;;;6.71;65.74;101423.78;12161112;19;20024;-83
2022/12/05 13:16:39;;;;;;;15.50;9.73;;;8.10;64.80;;;6.77;65.86;101436.56;12159373;19;20023;-83
2022/12/05 13:20:42;;;;;;;20.05;10.15;;;8.10;64.80;;;6.76;65.70;101419.31;12160689;19;20026;-83
2022/12/05 13:24:45;;;;;;;19.20;10.02;;;8.20;65.00;;;6.79;65.81;101425.25;12160392;19;20900;-83
2022/12/05 13:28:58;;;;;;;18.60;10.45;;;8.40;65.10;;;6.77;65.97;101423.59;12158287;19;20269;-83
2022/12/05 13:33:08;;;;;;;15.77;9.65;;;8.10;64.90;;;6.79;65.89;101429.59;12174847;19;20018;-84
2022/12/05 13:46:32;;;;;;;16.70;9.45;;;8.20;65.00;;;6.74;65.87;101414.16;12160148;19;20329;-83
2022/12/05 13:50:47;;;;;;;19.92;10.43;;;8.20;64.90;;;6.89;66.02;101436.25;12170875;19;20678;-83
2022/12/05 13:55:10;;;;;;;17.35;10.45;;;8.20;64.80;;;6.85;65.71;101438.06;12166150;19;20041;-83
2022/12/05 13:59:12;;;;;;;17.27;9.48;;;8.30;64.90;;;6.93;66.02;101439.59;12158813;19;20439;-82
2022/12/05 14:03:31;;;;;;;19.95;10.45;;;8.30;64.80;;;6.95;65.87;101441.25;12160770;19;20381;-82
2022/12/05 14:07:50;;;;;;;19.73;10.43;;;8.50;65.00;;;6.98;65.83;101440.31;12158573;19;20578;-82
2022/12/05 14:12:15;;;;;;;17.45;10.07;;;8.30;64.70;;;6.98;65.85;101442.91;12164784;19;20015;-83
2022/12/05 14:16:23;;;;;;;18.80;10.27;;;8.40;64.90;;;7.00;65.70;101447.16;12163388;19;20019;-83
2022/12/05 14:20:37;;;;;;;20.80;10.73;;;8.40;64.80;;;7.02;65.75;101452.31;12168960;19;20456;-82
2022/12/05 14:25:23;;;;;;;19.42;11.68;;;8.40;64.80;;;7.00;65.94;101454.97;12171353;19;20014;-82
2022/12/05 14:30:18;;;;;;;19.17;9.90;;;8.40;64.80;;;6.96;65.65;101437.75;12172827;19;20396;-82
2022/12/05 14:34:27;;;;;;;20.23;10.10;;;8.40;64.90;;;6.93;65.81;101427.47;12170576;19;20035;-82
2022/12/05 14:38:32;;;;;;;23.70;11.48;;;8.40;64.70;;;7.01;65.95;101441.06;12166752;19;20022;-82
2022/12/05 14:42:53;;;;;;;21.60;10.93;;;8.40;64.60;;;7.00;65.74;101436.78;12179704;19;20292;-83
2022/12/05 14:46:57;;;;;;;18.90;10.65;;;8.50;64.70;;;7.04;65.80;101442.72;12169102;19;20022;-82
2022/12/05 14:51:00;;;;;;;21.02;10.85;;;8.70;64.80;;;6.97;65.98;101423.06;12170898;19;20018;-82
2022/12/05 14:55:15;;;;;;;23.10;12.00;;;8.50;64.60;;;7.09;65.80;101449.50;12164642;19;20018;-83
2022/12/05 14:59:44;;;;;;;22.37;11.43;;;8.50;64.50;;;7.04;65.94;101429.75;12160187;19;20946;-82
2022/12/05 15:04:06;;;;;;;20.38;10.65;;;8.50;64.50;;;7.06;65.90;101428.81;12164993;19;20115;-83
2022/12/05 15:08:14;;;;;;;21.27;10.85;;;8.60;64.60;;;7.13;65.78;101437.28;12162689;19;20018;-83
2022/12/05 15:12:40;;;;;;;22.35;9.68;;;8.50;64.40;;;7.05;65.68;101431.47;12167716;19;20018;-83
2022/12/05 15:16:44;;;;;;;;;;;8.50;64.40;;;7.13;66.01;101444.19;12169169;19;20014;-83
2022/12/05 15:21:09;;;;;;;18.77;8.93;;;8.50;64.40;;;7.09;65.81;101441.69;12169122;19;19926;-83
2022/12/05 15:25:31;;;;;;;20.10;10.35;;;8.50;64.30;;;7.06;65.80;101433.16;12161078;19;20410;-83
2022/12/05 15:29:33;;;;;;;20.80;11.00;;;8.50;64.30;;;7.13;66.05;101444.19;12164953;19;20050;-83
2022/12/05 15:33:48;;;;;;;20.95;11.43;;;8.50;64.20;;;7.13;65.84;101444.19;12157938;19;20022;-84
2022/12/05 15:37:57;;;;;;;21.48;11.38;;;8.60;64.30;;;7.17;65.90;101457.06;12167733;19;20488;-84
2022/12/05 15:41:58;;;;;;;23.98;11.38;;;8.60;64.30;;;7.21;65.78;101468.22;12167384;19;20018;-83
2022/12/05 15:46:26;;;;;;;22.73;10.73;;;8.70;64.50;;;7.04;65.89;101443.56;12160973;19;20583;-83
2022/12/05 15:50:31;;;;;;;21.30;11.73;;;8.60;64.40;;;7.22;65.78;101465.56;12164926;19;20304;-83
2022/12/05 15:54:36;;;;;;;23.67;11.95;;;8.60;64.30;;;7.20;65.87;101453.53;12167675;19;20015;-83
2022/12/05 15:58:51;;;;;;;22.43;10.93;;;8.60;64.30;;;7.21;65.73;101458.69;12167976;19;20624;-83
2022/12/05 16:03:17;;;;;;;20.30;10.60;;;8.60;64.40;;;7.06;65.86;101436.59;12160712;19;20716;-83
2022/12/05 16:07:21;;;;;;;22.42;11.65;;;8.60;64.40;;;7.21;65.87;101458.69;12160896;19;20587;-82
2022/12/05 16:11:22;;;;;;;21.77;10.63;;;8.60;64.30;;;7.19;65.86;101460.47;12166568;19;20022;-83
2022/12/05 16:15:27;;;;;;;26.75;12.35;;;8.60;64.30;;;7.26;65.89;101472.41;12161389;19;20011;-82
2022/12/05 16:19:29;;;;;;;21.30;11.48;;;8.60;64.30;;;7.20;65.96;101448.34;12155419;19;20128;-83
2022/12/05 16:23:32;;;;;;;21.60;11.38;;;8.60;64.30;;;7.21;65.67;101445.72;12159380;19;20481;-83
2022/12/05 16:27:36;;;;;;;22.40;11.95;;;8.60;64.20;;;7.02;65.75;101415.94;12154310;19;20365;-83
2022/12/05 16:31:38;;;;;;;18.98;10.30;;;8.70;64.30;;;7.14;65.83;101440.72;12159288;19;20011;-83
2022/12/05 16:35:42;;;;;;;24.60;11.38;;;8.60;64.30;;;7.26;65.88;101461.13;12157772;19;20047;-83
2022/12/05 16:39:45;;;;;;;22.08;11.88;;;8.60;64.30;;;7.21;65.82;101443.09;12157623;19;20030;-84
2022/12/05 16:43:46;;;;;;;23.05;11.50;;;8.70;64.40;;;7.15;65.85;101426.84;12168657;19;20556;-82
2022/12/05 16:47:55;;;;;;;25.40;11.63;;;8.70;64.30;;;7.29;65.94;101451.53;12172248;19;20019;-83
2022/12/05 16:52:13;;;;;;;26.80;13.02;;;8.70;65.10;;;7.25;65.77;101439.50;12174932;19;20025;-83
2022/12/05 16:56:20;;;;;;;23.98;11.80;;;8.70;64.50;;;7.32;65.91;101442.78;12172486;19;20010;-83
2022/12/05 17:00:23;;;;;;;24.13;12.20;;;8.70;64.30;;;7.28;65.90;101430.78;12172339;19;20023;-84
2022/12/05 17:04:24;;;;;;;20.77;10.68;;;8.70;64.30;;;7.26;65.84;101432.56;12175985;19;20025;-83
2022/12/05 17:08:26;;;;;;;21.23;11.43;;;8.90;64.40;;;7.36;65.73;101441.78;12170039;19;20015;-83
2022/12/05 17:12:28;;;;;;;23.60;11.57;;;8.70;64.40;;;7.34;65.81;101437.53;12177126;19;20031;-83
2022/12/05 17:16:30;;;;;;;22.55;11.23;;;8.70;64.40;;;7.37;65.88;101443.50;12176052;19;20026;-83
2022/12/05 17:20:31;;;;;;;20.13;11.02;;;8.70;64.40;;;7.28;65.84;101426.41;12178953;19;20030;-83
2022/12/05 17:24:33;;;;;;;21.88;11.05;;;8.70;64.40;;;7.28;65.80;101430.78;12168354;19;20022;-84
2022/12/05 17:28:34;;;;;;;22.63;11.30;;;8.70;64.50;;;7.36;65.98;101446.97;12185552;19;20377;-84
2022/12/05 17:32:36;;;;;;;23.85;12.15;;;8.70;64.40;;;7.30;66.04;101427.22;12184907;19;20125;-83
2022/12/05 17:36:38;;;;;;;30.58;16.17;;;8.80;64.50;;;7.40;65.86;101442.53;12179024;19;20733;-84